Time;durP1;ratioP1;P1;durP2;ratioP2;P2;SDS_P1;SDS_P2;PMS_P1;PMS_P2;Temp;Humidity;BMP_temperature;BMP_pressure;BME280_temperature;BME280_humidity;BME280_pressure;Samples;Min_cycle;Max_cycle;Signal;HPM_P1;HPM_P2
2021/06/18 00:01:09;;;;;;;4.53;2.20;;;;;;;18.78;62.16;100992.59;1776670;79;21086;-72
2021/06/18 00:03:35;;;;;;;5.83;2.30;;;;;;;18.74;62.18;100986.98;1774512;78;21757;-72
2021/06/18 00:06:02;;;;;;;3.67;2.10;;;;;;;18.71;62.27;100984.84;1784274;78;21039;-73
2021/06/18 00:08:29;;;;;;;4.63;2.10;;;;;;;18.68;62.42;100984.09;1790230;78;22217;-72
2021/06/18 00:10:57;;;;;;;3.60;1.80;;;;;;;18.65;62.31;100983.33;1779994;79;21081;-72
2021/06/18 00:13:24;;;;;;;4.93;2.20;;;;;;;18.62;62.33;100978.52;1778298;79;21129;-72
2021/06/18 00:15:51;;;;;;;4.13;1.97;;;;;;;18.59;62.28;100977.23;1775897;80;21120;-72
2021/06/18 00:18:19;;;;;;;5.00;2.50;;;;;;;18.56;62.46;100972.43;1768554;79;21078;-72
2021/06/18 00:20:46;;;;;;;2.80;1.90;;;;;;;18.51;62.45;100975.22;1769955;79;21078;-73
2021/06/18 00:23:12;;;;;;;3.77;1.80;;;;;;;18.48;62.62;100972.55;1773097;78;21098;-72
2021/06/18 00:25:39;;;;;;;4.47;2.00;;;;;;;18.44;62.60;100976.17;1773270;79;21025;-73
2021/06/18 00:28:06;;;;;;;4.63;2.00;;;;;;;18.41;62.53;100971.36;1780111;80;21699;-72
2021/06/18 00:30:34;;;;;;;3.53;2.30;;;;;;;18.38;62.51;100966.55;1782766;78;22261;-72
2021/06/18 00:33:00;;;;;;;5.50;1.80;;;;;;;18.35;62.32;100965.79;1781305;79;21079;-71
2021/06/18 00:35:27;;;;;;;5.73;1.87;;;;;;;18.34;62.18;100964.20;1775545;78;21082;-73
2021/06/18 00:37:54;;;;;;;4.07;1.83;;;;;;;18.35;62.21;100961.73;1779324;78;21126;-72
2021/06/18 00:40:20;;;;;;;4.40;1.83;;;;;;;18.34;62.13;100966.90;1778994;78;21814;-73
2021/06/18 00:42:47;;;;;;;5.20;2.27;;;;;;;18.33;62.03;100966.10;1774734;79;21759;-72
2021/06/18 00:45:14;;;;;;;3.93;2.00;;;;;;;18.33;61.95;100970.16;1783890;78;21077;-72
2021/06/18 00:47:50;;;;;;;4.40;2.10;;;;;;;18.31;61.90;100971.00;1785561;78;21081;-71
2021/06/18 00:50:18;;;;;;;4.70;2.37;;;;;;;18.31;61.91;100971.55;1787570;78;21010;-72
2021/06/18 00:52:46;;;;;;;3.97;2.23;;;;;;;18.30;61.92;100974.02;1766391;79;21100;-73
2021/06/18 00:55:13;;;;;;;4.70;2.10;;;;;;;18.29;62.09;100973.19;1763667;79;21484;-73
2021/06/18 00:57:39;;;;;;;4.17;2.00;;;;;;;18.26;62.17;100972.42;1782538;79;21062;-72
2021/06/18 01:00:08;;;;;;;3.93;2.03;;;;;;;18.24;62.32;100969.23;1736899;80;21073;-71
2021/06/18 01:02:34;;;;;;;6.93;2.33;;;;;;;18.22;62.42;100968.72;1795314;78;21251;-72
2021/06/18 01:05:02;;;;;;;4.53;2.10;;;;;;;18.19;62.49;100962.56;1763968;80;21173;-72
2021/06/18 01:07:50;;;;;;;6.23;2.20;;;;;;;18.17;62.38;100970.18;1800399;77;20972;-71
2021/06/18 01:10:37;;;;;;;4.67;1.97;;;;;;;18.14;62.48;100966.72;1776773;80;21533;-72
2021/06/18 01:13:40;;;;;;;6.17;2.30;;;;;;;18.12;62.57;100958.09;1769242;78;21054;-72
2021/06/18 01:16:36;;;;;;;5.97;2.20;;;;;;;18.09;62.64;100964.09;1762190;79;21435;-72
2021/06/18 01:19:33;;;;;;;4.87;2.30;;;;;;;18.05;62.60;100959.83;1782760;78;21166;-72
2021/06/18 01:22:04;;;;;;;4.33;2.00;;;;;;;18.03;62.67;100967.42;1774878;80;38831;-72
2021/06/18 01:24:53;;;;;;;5.20;2.20;;;;;;;18.00;62.67;100973.45;1795133;79;21101;-73
2021/06/18 01:27:37;;;;;;;3.87;2.13;;;;;;;17.97;62.67;100968.08;1758391;79;21270;-72
2021/06/18 01:30:13;;;;;;;5.13;2.20;;;;;;;17.95;62.69;100968.91;1769594;79;21074;-72
2021/06/18 01:33:06;;;;;;;5.43;2.20;;;;;;;17.90;62.88;100974.42;1760123;79;21148;-72
2021/06/18 01:35:53;;;;;;;4.03;2.20;;;;;;;17.89;63.23;100972.80;1759200;80;21038;-72
2021/06/18 01:38:22;;;;;;;4.53;2.30;;;;;;;17.87;63.73;100972.31;1719498;80;21067;-72
2021/06/18 01:40:53;;;;;;;3.80;1.93;;;;;;;17.81;64.17;100971.58;1773117;80;21149;-71
2021/06/18 01:43:20;;;;;;;4.65;2.15;;;;;;;17.76;64.30;100973.00;1761219;80;21518;-72
2021/06/18 01:45:47;;;;;;;3.27;2.00;;;;;;;17.72;64.44;100969.81;1760841;80;21137;-72
2021/06/18 01:48:14;;;;;;;3.70;2.20;;;;;;;17.69;64.54;100967.14;1737034;80;20923;-72
2021/06/18 01:50:41;;;;;;;3.83;2.03;;;;;;;17.65;64.63;100965.34;1742891;80;21124;-72
2021/06/18 01:53:11;;;;;;;5.40;2.20;;;;;;;17.62;64.76;100959.97;1769642;80;21135;-71
2021/06/18 01:55:38;;;;;;;4.50;2.20;;;;;;;17.58;64.56;100954.36;1771613;79;21090;-72
2021/06/18 01:58:06;;;;;;;4.30;2.20;;;;;;;17.55;64.46;100954.14;1760232;80;21307;-72
2021/06/18 02:00:37;;;;;;;3.17;1.83;;;;;;;17.55;64.41;100956.84;1789854;79;21027;-72
2021/06/18 02:03:07;;;;;;;3.35;1.90;;;;;;;17.53;64.45;100953.07;1770524;79;21149;-72
2021/06/18 02:05:34;;;;;;;3.93;2.10;;;;;;;17.53;64.25;100954.97;1764307;79;21082;-72
2021/06/18 02:08:01;;;;;;;4.63;1.87;;;;;;;17.52;64.20;100956.88;1760842;80;20987;-72
2021/06/18 02:10:27;;;;;;;4.93;2.20;;;;;;;17.55;64.29;100958.99;1740406;80;21109;-72
2021/06/18 02:12:55;;;;;;;5.13;2.20;;;;;;;17.56;64.20;100951.69;1764165;79;21102;-72
2021/06/18 02:15:22;;;;;;;4.10;2.00;;;;;;;17.57;63.88;100950.58;1753347;80;21506;-73
2021/06/18 02:17:49;;;;;;;2.90;1.77;;;;;;;17.58;63.50;100948.16;1774125;79;21023;-73
2021/06/18 02:20:17;;;;;;;5.10;2.10;;;;;;;17.61;63.43;100961.63;1759159;80;21225;-72
2021/06/18 02:22:46;;;;;;;3.53;1.80;;;;;;;17.63;63.29;100968.87;1752250;80;21148;-72
2021/06/18 02:25:13;;;;;;;4.93;1.80;;;;;;;17.64;63.11;100963.75;1787481;79;21077;-72
2021/06/18 02:27:40;;;;;;;4.67;1.87;;;;;;;17.67;63.16;100962.61;1761524;80;20996;-73
2021/06/18 02:30:08;;;;;;;3.77;1.97;;;;;;;17.69;63.21;100959.59;1775050;79;21176;-71
2021/06/18 02:32:36;;;;;;;4.07;1.90;;;;;;;17.70;63.03;100963.89;1793375;79;21088;-72
2021/06/18 02:35:05;;;;;;;5.77;1.80;;;;;;;17.72;62.83;100968.47;1757383;80;21113;-72
2021/06/18 02:37:32;;;;;;;3.13;1.53;;;;;;;17.74;62.62;100968.43;1765725;79;21084;-73
2021/06/18 02:40:00;;;;;;;3.97;1.80;;;;;;;17.77;62.55;100971.92;1776371;80;21206;-71
2021/06/18 02:42:27;;;;;;;6.60;1.90;;;;;;;17.80;62.57;100975.39;1763823;80;21086;-72
2021/06/18 02:44:54;;;;;;;2.87;1.77;;;;;;;17.82;62.48;100976.44;1797356;78;20987;-72
2021/06/18 02:47:28;;;;;;;4.20;1.70;;;;;;;17.85;62.38;100977.20;1757974;80;21812;-72
2021/06/18 02:50:19;;;;;;;3.53;1.80;;;;;;;17.88;62.44;100980.66;1806668;78;21010;-72
2021/06/18 02:53:06;;;;;;;3.80;1.83;;;;;;;17.91;62.38;100978.72;1767279;80;21035;-72
2021/06/18 02:55:53;;;;;;;4.30;1.90;;;;;;;17.92;62.10;100984.37;1801304;78;20992;-71
2021/06/18 02:58:27;;;;;;;4.93;1.80;;;;;;;17.94;62.02;100984.09;1785729;78;21105;-73
2021/06/18 03:00:54;;;;;;;3.60;1.50;;;;;;;17.95;61.86;100981.08;1768797;79;21684;-73
2021/06/18 03:03:25;;;;;;;4.33;1.70;;;;;;;17.98;61.77;100989.15;1739494;80;21134;-73
2021/06/18 03:05:52;;;;;;;4.40;1.90;;;;;;;17.99;61.74;100982.08;1797170;78;21090;-72
2021/06/18 03:08:19;;;;;;;4.53;1.90;;;;;;;18.00;61.62;100978.86;1725581;81;21098;-72
2021/06/18 03:10:49;;;;;;;3.67;1.80;;;;;;;18.04;61.63;100977.16;1786586;79;21105;-73
2021/06/18 03:13:26;;;;;;;3.20;1.50;;;;;;;18.07;61.78;100986.58;1762141;79;21541;-73
2021/06/18 03:15:56;;;;;;;4.90;1.67;;;;;;;18.10;61.21;100992.20;1790760;79;21120;-72
2021/06/18 03:18:23;;;;;;;3.63;1.80;;;;;;;18.15;61.06;100991.30;1785080;78;21038;-72
2021/06/18 03:20:52;;;;;;;3.87;1.70;;;;;;;18.17;60.99;100993.16;1769034;79;21105;-72
2021/06/18 03:23:19;;;;;;;4.87;1.70;;;;;;;18.19;60.76;100985.53;1784768;78;21105;-71
2021/06/18 03:25:46;;;;;;;4.70;1.80;;;;;;;18.22;60.52;100989.80;1784409;79;21100;-72
2021/06/18 03:28:13;;;;;;;2.50;1.43;;;;;;;18.24;60.36;100989.52;1780809;78;21179;-72
2021/06/18 03:30:40;;;;;;;4.07;1.50;;;;;;;18.24;60.26;100986.81;1756037;79;21624;-72
2021/06/18 03:33:07;;;;;;;3.67;1.70;;;;;;;18.27;60.48;100986.22;1780460;78;21030;-73
2021/06/18 03:35:33;;;;;;;3.17;1.60;;;;;;;18.30;60.43;100984.27;1785210;79;21078;-72
2021/06/18 03:38:00;;;;;;;3.40;1.40;;;;;;;18.34;60.34;100989.88;1782026;79;21093;-76
2021/06/18 03:40:27;;;;;;;3.33;1.70;;;;;;;18.40;60.07;100988.70;1790039;78;21236;-73
2021/06/18 03:42:53;;;;;;;3.03;1.70;;;;;;;18.44;60.15;100990.49;1748944;80;21291;-72
2021/06/18 03:45:23;;;;;;;3.00;1.80;;;;;;;18.48;59.68;100986.08;1785106;78;21253;-72
2021/06/18 03:47:51;;;;;;;4.67;1.70;;;;;;;18.54;59.67;100986.80;1770662;79;21053;-72
2021/06/18 03:50:22;;;;;;;4.90;1.70;;;;;;;18.59;59.52;100989.94;1771715;79;21124;-73
2021/06/18 03:52:49;;;;;;;3.37;1.70;;;;;;;18.63;59.33;100990.97;1768541;80;21034;-72
2021/06/18 03:55:17;;;;;;;4.13;1.70;;;;;;;18.67;59.23;100987.91;1764202;80;21053;-72
2021/06/18 03:57:47;;;;;;;3.73;1.60;;;;;;;18.73;59.42;100984.03;1760661;79;21105;-72
2021/06/18 04:00:17;;;;;;;4.97;1.85;;;;;;;18.80;59.11;100980.92;1781490;79;21113;-72
2021/06/18 04:02:44;;;;;;;3.53;1.60;;;;;;;18.86;59.10;100985.92;1777148;79;21649;-74
2021/06/18 04:05:15;;;;;;;3.50;2.03;;;;;;;18.93;58.90;100984.16;1778975;79;21043;-73
2021/06/18 04:07:48;;;;;;;4.83;2.10;;;;;;;19.00;58.91;100987.27;1776333;78;21137;-73
2021/06/18 04:10:16;;;;;;;4.53;2.20;;;;;;;19.05;58.59;100982.28;1776564;80;21036;-72
2021/06/18 04:12:44;;;;;;;3.63;1.60;;;;;;;19.08;58.40;100985.73;1752605;80;21125;-72
2021/06/18 04:15:13;;;;;;;2.93;1.80;;;;;;;19.12;58.62;100986.75;1776991;79;21378;-71
2021/06/18 04:17:40;;;;;;;2.83;1.47;;;;;;;19.18;58.36;100994.99;1722239;80;20998;-73
2021/06/18 04:20:09;;;;;;;3.73;1.60;;;;;;;19.24;58.59;100999.20;1802988;79;21003;-74
2021/06/18 04:22:36;;;;;;;4.33;1.63;;;;;;;19.30;58.24;101002.60;1794883;79;21755;-73
2021/06/18 04:25:05;;;;;;;4.63;1.80;;;;;;;19.36;58.36;101009.52;1767574;80;21055;-72
2021/06/18 04:27:33;;;;;;;6.17;1.80;;;;;;;19.44;58.44;101017.70;1791426;79;21039;-73
2021/06/18 04:30:00;;;;;;;2.77;1.67;;;;;;;19.55;57.87;101014.78;1757695;79;21105;-72
2021/06/18 04:32:26;;;;;;;3.60;1.60;;;;;;;19.62;57.66;101017.31;1779026;78;21006;-70
2021/06/18 04:34:53;;;;;;;2.93;1.60;;;;;;;19.66;57.21;101014.26;1778167;80;21493;-73
2021/06/18 04:37:22;;;;;;;4.17;1.63;;;;;;;19.71;57.65;101013.36;1782399;79;21089;-73
2021/06/18 04:39:48;;;;;;;3.63;1.80;;;;;;;19.77;56.97;101003.97;1752553;80;21137;-73
2021/06/18 04:42:15;;;;;;;2.47;1.60;;;;;;;19.80;56.77;101007.98;1782867;79;21553;-72
2021/06/18 04:44:43;;;;;;;5.93;1.97;;;;;;;19.84;57.14;101005.72;1782851;78;21604;-73
2021/06/18 04:47:10;;;;;;;4.00;1.63;;;;;;;19.93;57.04;101005.76;1786863;80;21506;-73
2021/06/18 04:49:37;;;;;;;3.80;1.40;;;;;;;20.05;57.14;101002.50;1780719;78;21049;-73
2021/06/18 04:52:07;;;;;;;4.37;1.80;;;;;;;20.16;56.61;101002.47;1766219;79;21588;-72
2021/06/18 04:54:35;;;;;;;2.97;1.60;;;;;;;20.26;56.51;101006.84;1772700;78;21471;-73
2021/06/18 04:57:03;;;;;;;3.73;1.50;;;;;;;20.37;56.42;101013.62;1785184;78;21162;-73
2021/06/18 04:59:30;;;;;;;4.27;1.50;;;;;;;20.48;56.20;101010.07;1782818;78;21066;-74
2021/06/18 05:01:56;;;;;;;2.63;1.43;;;;;;;20.57;55.47;101006.87;1767056;79;21668;-73
2021/06/18 05:04:23;;;;;;;4.20;1.67;;;;;;;20.61;55.38;101007.27;1767419;80;21500;-74
2021/06/18 05:06:50;;;;;;;3.63;1.80;;;;;;;20.70;55.27;101016.82;1759643;79;20995;-73
2021/06/18 05:09:16;;;;;;;3.40;1.80;;;;;;;20.76;54.77;101007.42;1783062;78;21109;-72
2021/06/18 05:11:43;;;;;;;4.03;1.63;;;;;;;20.80;54.76;101007.59;1798149;79;21042;-74
2021/06/18 05:14:10;;;;;;;4.23;2.17;;;;;;;20.88;54.77;101003.30;1767427;80;21039;-73
2021/06/18 05:16:39;;;;;;;5.30;1.73;;;;;;;20.95;54.13;101003.06;1771914;79;21182;-73
2021/06/18 05:19:06;;;;;;;3.60;1.57;;;;;;;21.03;54.46;101007.73;1799090;78;21027;-72
2021/06/18 05:21:33;;;;;;;3.93;1.60;;;;;;;21.12;54.21;101005.58;1804998;78;21043;-72
2021/06/18 05:24:00;;;;;;;4.00;1.60;;;;;;;21.20;53.58;100989.30;1770996;79;21629;-73
2021/06/18 05:26:31;;;;;;;4.07;1.60;;;;;;;21.27;53.53;100987.47;1797406;79;21075;-73
2021/06/18 05:28:59;;;;;;;1.90;1.50;;;;;;;21.36;53.50;100994.31;1795405;79;21090;-72
2021/06/18 05:31:27;;;;;;;3.67;1.50;;;;;;;21.42;53.30;100999.27;1794671;78;21453;-72
2021/06/18 05:33:54;;;;;;;5.23;1.63;;;;;;;21.50;53.81;100999.02;1791106;79;21083;-72
2021/06/18 05:36:22;;;;;;;4.23;1.60;;;;;;;21.57;53.49;100997.18;1792783;79;21094;-74
2021/06/18 05:38:49;;;;;;;3.60;1.50;;;;;;;21.62;52.55;100990.20;1797058;79;21548;-74
2021/06/18 05:41:16;;;;;;;3.50;1.77;;;;;;;21.63;52.47;100991.27;1773670;79;21143;-73
2021/06/18 05:43:43;;;;;;;4.57;1.63;;;;;;;21.65;52.34;100996.36;1768830;79;21070;-72
2021/06/18 05:46:10;;;;;;;7.07;1.50;;;;;;;21.64;52.83;100995.56;1739671;80;21050;-72
2021/06/18 05:48:39;;;;;;;5.43;1.57;;;;;;;21.64;52.66;100995.56;1799855;78;21022;-73
2021/06/18 05:51:06;;;;;;;3.13;1.33;;;;;;;21.71;53.20;100995.08;1769435;79;21582;-73
2021/06/18 05:53:34;;;;;;;4.40;1.83;;;;;;;21.79;52.65;100990.21;1793153;79;21138;-72
2021/06/18 05:56:01;;;;;;;3.20;1.50;;;;;;;21.86;53.24;100989.72;1766121;80;21014;-72
2021/06/18 05:58:27;;;;;;;3.33;1.40;;;;;;;21.89;52.72;100989.08;1794559;78;21118;-72
2021/06/18 06:00:54;;;;;;;4.73;1.67;;;;;;;21.94;53.00;100982.09;1802820;79;21073;-73
2021/06/18 06:03:22;;;;;;;5.80;1.83;;;;;;;21.98;52.38;100974.34;1801318;79;21588;-72
2021/06/18 06:05:49;;;;;;;3.50;1.30;;;;;;;22.04;52.57;100982.31;1770394;79;21584;-73
2021/06/18 06:08:16;;;;;;;4.40;1.50;;;;;;;22.09;52.69;100981.59;1765012;79;21086;-81
2021/06/18 06:10:47;;;;;;;3.63;1.67;;;;;;;22.16;52.11;100985.20;1786300;78;21050;-81
2021/06/18 06:13:16;;;;;;;6.43;1.57;;;;;;;22.22;52.29;100979.83;1755922;80;21066;-82
2021/06/18 06:15:42;;;;;;;5.80;1.83;;;;;;;22.29;51.55;100974.67;1794466;79;20971;-84
2021/06/18 06:18:09;;;;;;;3.73;1.30;;;;;;;22.32;51.90;100974.02;1791710;79;21764;-83
2021/06/18 06:20:36;;;;;;;4.30;2.00;;;;;;;22.36;51.63;100981.77;1788733;79;21374;-80
2021/06/18 06:23:03;;;;;;;7.60;1.93;;;;;;;22.40;52.24;100978.62;1795193;77;21026;-83
2021/06/18 06:25:29;;;;;;;5.13;1.60;;;;;;;22.48;51.62;100976.44;1804258;78;20999;-79
2021/06/18 06:27:56;;;;;;;4.03;1.70;;;;;;;22.52;51.48;100972.50;1793596;78;20987;-79
2021/06/18 06:30:23;;;;;;;2.77;1.40;;;;;;;22.58;51.91;100969.83;1809068;78;21136;-81
2021/06/18 06:32:50;;;;;;;2.90;1.50;;;;;;;22.68;50.83;100969.45;1791964;77;21069;-82
2021/06/18 06:35:17;;;;;;;3.57;1.33;;;;;;;22.77;50.58;100967.23;1790368;79;20999;-83
2021/06/18 06:37:45;;;;;;;5.83;1.80;;;;;;;22.77;50.55;100974.05;1791573;78;21000;-82
2021/06/18 06:40:13;;;;;;;6.57;1.50;;;;;;;22.80;50.87;100978.83;1787314;79;21572;-85
2021/06/18 06:42:40;;;;;;;5.27;1.70;;;;;;;22.84;50.99;100974.34;1778792;79;21198;-84
2021/06/18 06:45:09;;;;;;;2.60;1.50;;;;;;;22.94;50.78;100973.99;1781275;80;21035;-85
2021/06/18 06:47:35;;;;;;;5.27;1.60;;;;;;;23.03;50.16;100971.98;1773547;79;21151;-82
2021/06/18 06:50:03;;;;;;;3.27;1.30;;;;;;;23.10;50.17;100968.73;1779100;78;21583;-82
2021/06/18 06:52:31;;;;;;;3.97;1.40;;;;;;;23.16;49.87;100966.05;1773057;79;20937;-83
2021/06/18 06:54:58;;;;;;;3.53;1.43;;;;;;;23.24;49.63;100963.84;1775201;78;21997;-82
2021/06/18 06:57:25;;;;;;;3.47;1.50;;;;;;;23.31;49.66;100971.48;1773983;79;21038;-79
2021/06/18 06:59:52;;;;;;;5.37;2.60;;;;;;;23.38;49.85;100971.17;1778032;80;21207;-84
2021/06/18 07:02:19;;;;;;;15.20;10.40;;;;;;;23.48;50.43;100969.97;1776237;79;21543;-86
2021/06/18 07:04:45;;;;;;;12.20;7.90;;;;;;;23.58;49.76;100970.91;1779086;79;21073;-82
2021/06/18 07:07:13;;;;;;;25.40;18.47;;;;;;;23.66;49.07;100965.17;1778840;78;22447;-87
2021/06/18 07:09:40;;;;;;;33.73;21.90;;;;;;;23.69;49.41;100956.89;1780365;78;21413;-86
2021/06/18 07:12:09;;;;;;;6.37;3.87;;;;;;;23.74;49.60;100948.52;1765499;80;21106;-87
2021/06/18 07:14:40;;;;;;;10.07;2.97;;;;;;;23.79;49.07;100950.47;1767388;79;21050;-71
2021/06/18 07:17:07;;;;;;;5.22;1.75;;;;;;;23.82;48.65;100948.43;1771555;79;27175;-73
2021/06/18 07:19:34;;;;;;;14.73;8.60;;;;;;;23.84;48.66;100955.69;1791790;79;21105;-72
2021/06/18 07:22:01;;;;;;;8.03;3.70;;;;;;;23.93;49.70;100966.52;1788002;77;21059;-71
2021/06/18 07:24:28;;;;;;;9.63;2.87;;;;;;;24.01;48.83;100965.63;1803410;78;21613;-72
2021/06/18 07:26:54;;;;;;;10.30;5.20;;;;;;;24.13;50.48;100974.41;1794830;79;21062;-71
2021/06/18 07:29:21;;;;;;;21.37;6.03;;;;;;;24.24;48.55;100976.13;1796205;79;21085;-72
2021/06/18 07:31:48;;;;;;;6.60;2.40;;;;;;;24.28;48.20;100968.30;1792380;78;21088;-72
2021/06/18 07:34:15;;;;;;;14.67;7.07;;;;;;;24.34;48.76;100971.58;1767543;79;21613;-75
2021/06/18 07:36:42;;;;;;;10.03;3.53;;;;;;;24.36;48.03;100974.78;1750368;79;21078;-74
2021/06/18 07:39:08;;;;;;;9.30;4.97;;;;;;;24.34;48.48;100977.05;1779133;78;21097;-73
2021/06/18 07:41:37;;;;;;;11.80;5.27;;;;;;;24.34;48.07;100970.22;1767190;80;21042;-74
2021/06/18 07:44:05;;;;;;;4.00;2.27;;;;;;;24.34;48.43;100971.02;1761680;79;21148;-72
2021/06/18 07:46:32;;;;;;;6.90;3.00;;;;;;;24.34;47.75;100967.49;1795277;79;21076;-71
2021/06/18 07:48:59;;;;;;;4.30;1.77;;;;;;;24.31;48.18;100973.63;1772933;79;21102;-73
2021/06/18 07:51:25;;;;;;;4.07;1.60;;;;;;;24.36;50.27;100968.53;1773981;78;21597;-73
2021/06/18 07:53:52;;;;;;;4.00;2.00;;;;;;;24.55;50.72;100983.82;1787392;78;21089;-72
2021/06/18 07:56:27;;;;;;;6.70;3.40;;;;;;;24.70;48.80;100982.33;1778675;79;21133;-73
2021/06/18 07:58:53;;;;;;;6.83;2.30;;;;;;;24.80;48.54;100992.21;1777218;78;21102;-72
2021/06/18 08:01:20;;;;;;;4.87;1.50;;;;;;;24.92;49.07;100987.89;1774818;78;21045;-74
2021/06/18 08:03:48;;;;;;;2.53;1.60;;;;;;;25.08;48.04;100989.36;1784843;78;21057;-73
2021/06/18 08:06:16;;;;;;;14.97;9.10;;;;;;;25.16;46.48;100989.23;1770223;80;21109;-73
2021/06/18 08:08:44;;;;;;;7.73;5.10;;;;;;;25.14;47.46;100997.55;1743404;79;22009;-73
2021/06/18 08:11:13;;;;;;;6.37;3.60;;;;;;;25.18;48.41;101001.20;1767576;79;21046;-73
2021/06/18 08:13:42;;;;;;;5.97;4.07;;;;;;;25.28;47.19;100991.16;1755194;80;21082;-72
2021/06/18 08:16:09;;;;;;;7.03;5.20;;;;;;;25.34;47.67;100999.34;1777935;78;21049;-72
2021/06/18 08:18:36;;;;;;;10.63;2.80;;;;;;;25.36;47.33;100993.52;1775399;80;21592;-73
2021/06/18 08:21:03;;;;;;;5.67;3.67;;;;;;;25.44;47.37;100989.28;1769794;79;21594;-72
2021/06/18 08:23:30;;;;;;;5.87;1.90;;;;;;;25.53;46.61;100982.27;1780296;79;21020;-71
2021/06/18 08:25:58;;;;;;;5.50;2.00;;;;;;;25.61;46.26;100977.82;1771930;79;22337;-72
2021/06/18 08:28:24;;;;;;;5.43;2.50;;;;;;;25.65;47.10;100984.97;1774975;80;21190;-70
2021/06/18 08:30:51;;;;;;;5.30;2.50;;;;;;;25.70;46.43;100983.94;1780224;78;21141;-74
2021/06/18 08:33:18;;;;;;;5.10;2.70;;;;;;;25.66;45.82;100978.92;1773528;78;21990;-73
2021/06/18 08:35:46;;;;;;;3.87;2.10;;;;;;;25.65;46.56;100979.50;1779079;79;21046;-73
2021/06/18 08:38:13;;;;;;;6.50;2.50;;;;;;;25.66;46.65;100976.19;1779681;79;21053;-71
2021/06/18 08:40:40;;;;;;;3.77;2.30;;;;;;;25.69;47.17;100979.02;1776359;78;21637;-73
2021/06/18 08:43:07;;;;;;;6.03;2.30;;;;;;;25.76;46.50;100977.62;1778181;80;21145;-72
2021/06/18 08:45:34;;;;;;;6.03;2.93;;;;;;;25.76;46.66;100978.41;1777315;79;21957;-73
2021/06/18 08:48:00;;;;;;;5.27;2.47;;;;;;;25.80;47.61;100975.25;1778473;78;21022;-74
2021/06/18 08:50:27;;;;;;;5.27;2.17;;;;;;;25.88;46.96;100970.76;1760307;80;21062;-73
2021/06/18 08:52:58;;;;;;;4.00;1.80;;;;;;;25.97;47.29;100970.02;1778164;80;21032;-73
2021/06/18 08:55:31;;;;;;;2.80;1.55;;;;;;;26.05;46.85;100969.63;1777623;79;21061;-72
2021/06/18 08:58:03;;;;;;;5.73;2.00;;;;;;;26.10;46.99;100970.75;1791322;80;21204;-73
2021/06/18 09:00:31;;;;;;;2.77;1.63;;;;;;;26.20;46.89;100969.64;1778366;78;21042;-71
2021/06/18 09:02:58;;;;;;;5.67;2.23;;;;;;;26.26;46.27;100968.81;1771965;79;21121;-72
2021/06/18 09:05:25;;;;;;;6.10;2.40;;;;;;;26.25;47.13;100966.41;1780381;78;21034;-73
2021/06/18 09:08:01;;;;;;;3.67;1.70;;;;;;;26.12;46.34;100973.91;1775240;80;21041;-73
2021/06/18 09:10:34;;;;;;;3.60;1.60;;;;;;;26.01;46.99;100977.75;1772380;79;21098;-72
2021/06/18 09:13:22;;;;;;;;;;;;;;;26.10;47.22;100976.22;1776666;78;21717;-73
2021/06/18 09:15:52;;;;;;;4.30;1.70;;;;;;;26.26;48.00;100974.29;1766823;79;20173;-72
2021/06/18 09:18:39;;;;;;;4.40;1.70;;;;;;;26.40;46.20;100980.69;1781352;78;21082;-72
2021/06/18 09:21:21;;;;;;;5.70;2.00;;;;;;;26.40;46.16;100984.22;1777158;78;21094;-72
2021/06/18 09:23:54;;;;;;;5.35;2.47;;;;;;;26.33;46.36;100978.56;1776360;79;21140;-71
2021/06/18 09:26:34;;;;;;;5.73;2.50;;;;;;;26.26;46.99;100977.03;1794292;78;21023;-71
2021/06/18 09:29:07;;;;;;;4.83;2.22;;;;;;;26.19;46.62;100973.53;1782516;79;21093;-71
2021/06/18 09:31:49;;;;;;;3.77;2.00;;;;;;;26.16;46.90;100982.45;1787242;78;21129;-72
2021/06/18 09:34:45;;;;;;;2.33;1.50;;;;;;;26.19;46.94;100979.56;1757254;79;21656;-73
2021/06/18 09:37:36;;;;;;;4.30;2.00;;;;;;;26.31;47.09;100971.84;1786818;79;21087;-72
2021/06/18 09:40:19;;;;;;;5.10;1.67;;;;;;;26.55;47.60;100958.55;1759706;79;21043;-73
2021/06/18 09:43:14;;;;;;;3.63;2.07;;;;;;;26.81;46.08;100961.50;1778225;79;21081;-73
2021/06/18 09:45:40;;;;;;;3.63;1.90;;;;;;;26.97;46.48;100977.13;1690024;82;21591;-71
2021/06/18 09:48:12;;;;;;;3.10;1.80;;;;;;;26.97;44.99;100956.56;1753440;80;21114;-72
2021/06/18 09:50:41;;;;;;;6.60;3.50;;;;;;;26.92;45.38;100959.58;1763602;79;21090;-73
2021/06/18 09:53:22;;;;;;;4.00;2.10;;;;;;;26.92;45.40;100958.20;1774598;79;21014;-72
2021/06/18 09:56:06;;;;;;;3.47;2.10;;;;;;;26.90;45.11;100956.63;1794947;79;22387;-72
2021/06/18 09:58:40;;;;;;;6.20;2.57;;;;;;;26.88;45.66;100951.28;1806680;79;21307;-73
2021/06/18 10:01:23;;;;;;;5.23;1.90;;;;;;;26.92;45.43;100941.20;1797925;78;21066;-72
2021/06/18 10:04:10;;;;;;;5.63;2.57;;;;;;;26.97;45.84;100946.97;1791163;79;22022;-72
2021/06/18 10:06:37;;;;;;;3.67;2.30;;;;;;;27.12;46.41;100940.06;1770059;79;20978;-73
2021/06/18 10:09:07;;;;;;;3.10;2.40;;;;;;;27.46;47.01;100944.48;1782229;79;21030;-72
2021/06/18 10:11:35;;;;;;;3.40;2.30;;;;;;;27.73;44.95;100944.00;1779368;78;21057;-73
2021/06/18 10:14:02;;;;;;;4.20;1.80;;;;;;;27.84;44.04;100937.39;1791259;79;21106;-71
2021/06/18 10:16:30;;;;;;;5.40;1.87;;;;;;;27.83;43.82;100940.69;1762901;79;21980;-72
2021/06/18 10:18:58;;;;;;;2.73;1.80;;;;;;;27.75;44.04;100940.33;1751800;80;22849;-73
2021/06/18 10:21:26;;;;;;;2.73;1.80;;;;;;;27.74;44.93;100944.24;1765509;79;21649;-71
2021/06/18 10:23:58;;;;;;;6.07;1.93;;;;;;;27.75;45.22;100942.28;1792716;79;21522;-71
2021/06/18 10:26:25;;;;;;;3.60;1.73;;;;;;;27.78;45.18;100942.37;1763022;79;21035;-71
2021/06/18 10:28:56;;;;;;;2.40;1.63;;;;;;;27.77;43.97;100932.56;1758111;79;21113;-71
2021/06/18 10:31:27;;;;;;;5.17;2.00;;;;;;;27.82;44.19;100935.58;1760620;79;21546;-73
2021/06/18 10:34:11;;;;;;;2.50;1.70;;;;;;;27.90;44.50;100935.11;1777625;79;21009;-72
2021/06/18 10:36:38;;;;;;;3.53;1.80;;;;;;;28.01;43.39;100936.11;1803624;79;20912;-71
2021/06/18 10:39:14;;;;;;;3.40;2.10;;;;;;;28.09;44.11;100933.68;1797878;79;21119;-72
2021/06/18 10:41:55;;;;;;;2.93;1.93;;;;;;;28.10;43.92;100944.08;1790488;78;21085;-72
2021/06/18 10:44:44;;;;;;;6.35;1.95;;;;;;;28.09;44.90;100941.13;1794335;79;22991;-73
2021/06/18 10:47:31;;;;;;;5.35;1.67;;;;;;;28.20;44.49;100934.66;1758225;80;21767;-72
2021/06/18 10:49:59;;;;;;;3.40;1.97;;;;;;;28.40;43.80;100941.48;1786924;79;21539;-72
2021/06/18 10:52:38;;;;;;;3.90;1.50;;;;;;;28.49;42.93;100936.49;1790334;78;20946;-72
2021/06/18 10:55:06;;;;;;;3.63;1.90;;;;;;;28.54;43.26;100933.44;1767658;79;21091;-72
2021/06/18 10:57:32;;;;;;;3.57;1.87;;;;;;;28.62;43.25;100924.70;1791308;78;21143;-71
2021/06/18 11:00:20;;;;;;;4.67;2.00;;;;;;;28.67;43.01;100932.06;1788381;78;21011;-72
2021/06/18 11:02:47;;;;;;;3.47;2.00;;;;;;;28.72;42.50;100919.35;1775829;78;21052;-71
2021/06/18 11:05:32;;;;;;;4.53;2.13;;;;;;;28.75;42.46;100915.08;1782457;78;21145;-71
2021/06/18 11:08:19;;;;;;;3.50;2.03;;;;;;;28.80;43.31;100906.52;1779598;79;21068;-72
2021/06/18 11:10:45;;;;;;;3.97;2.10;;;;;;;28.98;44.42;100906.73;1776275;78;22522;-72
2021/06/18 11:13:13;;;;;;;5.90;2.20;;;;;;;29.19;42.49;100905.66;1775249;79;21054;-72
2021/06/18 11:15:45;;;;;;;3.67;2.17;;;;;;;29.20;41.49;100904.48;1769390;78;21018;-71
2021/06/18 11:18:18;;;;;;;3.10;2.30;;;;;;;29.07;42.01;100907.27;1778572;79;21080;-74
2021/06/18 11:20:50;;;;;;;4.53;2.10;;;;;;;28.86;42.07;100905.03;1775232;80;21067;-72
2021/06/18 11:23:22;;;;;;;4.37;1.90;;;;;;;28.68;43.40;100908.11;1774543;78;21059;-72
2021/06/18 11:26:04;;;;;;;3.90;1.87;;;;;;;28.69;43.85;100896.76;1780066;79;21062;-70
2021/06/18 11:28:41;;;;;;;3.63;2.10;;;;;;;28.75;42.26;100897.99;1781480;78;21093;-72
2021/06/18 11:31:21;;;;;;;3.73;1.87;;;;;;;28.67;42.19;100893.58;1780601;78;21117;-74
2021/06/18 11:34:00;;;;;;;3.80;1.97;;;;;;;28.60;43.03;100892.70;1781332;78;21127;-72
2021/06/18 11:36:40;;;;;;;4.47;2.50;;;;;;;28.67;43.94;100895.54;1778463;79;21109;-72
2021/06/18 11:39:15;;;;;;;3.70;2.30;;;;;;;28.90;44.20;100898.20;1779019;79;21029;-72